createdAt,value
2018-05-05T00:02:22.833Z,3.50
2018-05-05T00:04:49.107Z,3.60
2018-05-05T00:07:15.287Z,3.60
2018-05-05T00:09:41.589Z,3.50
2018-05-05T00:12:08.654Z,3.60
2018-05-05T00:14:35.597Z,3.60
2018-05-05T00:17:02.552Z,3.60
2018-05-05T00:19:28.698Z,3.50
2018-05-05T00:21:54.953Z,3.60
2018-05-05T00:24:22.741Z,3.60
2018-05-05T00:26:49.669Z,3.60
2018-05-05T00:29:17.347Z,3.50
2018-05-05T00:31:43.644Z,3.50
2018-05-05T00:34:09.893Z,3.50
2018-05-05T00:36:36.226Z,3.50
2018-05-05T00:39:02.472Z,3.50
2018-05-05T00:41:29.506Z,3.50
2018-05-05T00:43:56.584Z,3.50
2018-05-05T00:46:22.773Z,3.50
2018-05-05T00:48:49.859Z,3.40
2018-05-05T00:51:16.425Z,3.40
2018-05-05T00:53:42.591Z,3.40
2018-05-05T00:56:09.674Z,3.40
2018-05-05T00:58:35.974Z,3.40
2018-05-05T01:01:02.284Z,3.40
2018-05-05T01:03:29.225Z,3.40
2018-05-05T01:05:55.458Z,3.40
2018-05-05T01:08:21.657Z,3.30
2018-05-05T01:10:47.916Z,3.30
2018-05-05T01:13:14.223Z,3.30
2018-05-05T01:15:40.434Z,3.30
2018-05-05T01:18:06.604Z,3.30
2018-05-05T01:20:33.652Z,3.30
2018-05-05T01:23:00.637Z,3.20
2018-05-05T01:25:32.877Z,3.20
2018-05-05T01:27:59.174Z,3.30
2018-05-05T01:30:25.330Z,3.20
2018-05-05T01:32:52.135Z,3.20
2018-05-05T01:35:19.057Z,3.10
2018-05-05T01:37:45.345Z,3.10
2018-05-05T01:40:11.658Z,3.10
2018-05-05T01:42:38.673Z,3.00
2018-05-05T01:45:04.994Z,3.00
2018-05-05T01:47:31.253Z,3.00
2018-05-05T01:49:58.172Z,3.00
2018-05-05T01:52:26.039Z,3.00
2018-05-05T01:54:53.743Z,3.00
2018-05-05T01:57:20.087Z,2.90
2018-05-05T01:59:46.363Z,2.90
2018-05-05T02:02:13.434Z,2.90
2018-05-05T02:04:40.424Z,2.80
2018-05-05T02:07:06.720Z,2.80
2018-05-05T02:09:33.100Z,2.90
2018-05-05T02:11:59.284Z,2.80
2018-05-05T02:14:25.471Z,2.70
2018-05-05T02:16:53.233Z,2.70
2018-05-05T02:19:19.434Z,2.70
2018-05-05T02:21:45.868Z,2.70
2018-05-05T02:24:12.197Z,2.60
2018-05-05T02:26:38.453Z,2.60
2018-05-05T02:29:05.578Z,2.50
2018-05-05T02:31:31.903Z,2.50
2018-05-05T02:33:58.999Z,2.50
2018-05-05T02:36:25.242Z,2.50
2018-05-05T02:38:51.437Z,2.50
2018-05-05T02:41:18.448Z,2.50
2018-05-05T02:43:44.625Z,2.50
2018-05-05T02:46:11.641Z,2.40
2018-05-05T02:48:37.873Z,2.40
2018-05-05T02:51:04.185Z,2.40
2018-05-05T02:53:30.550Z,2.40
2018-05-05T02:55:57.473Z,2.40
2018-05-05T02:58:23.693Z,2.30
2018-05-05T03:00:51.551Z,2.20
2018-05-05T03:03:17.823Z,2.20
2018-05-05T03:05:44.029Z,2.20
2018-05-05T03:08:11.050Z,2.20
2018-05-05T03:10:37.481Z,2.20
2018-05-05T03:13:03.832Z,2.20
2018-05-05T03:15:30.899Z,2.20
2018-05-05T03:17:57.896Z,2.10
2018-05-05T03:20:24.095Z,2.10
2018-05-05T03:22:50.360Z,2.10
2018-05-05T03:25:17.398Z,2.00
2018-05-05T03:27:43.745Z,1.90
2018-05-05T03:30:09.944Z,1.90
2018-05-05T03:32:36.194Z,1.90
2018-05-05T03:35:03.134Z,1.90
2018-05-05T03:37:30.216Z,1.90
2018-05-05T03:39:56.432Z,1.90
2018-05-05T03:42:23.356Z,1.90
2018-05-05T03:44:50.340Z,1.90
2018-05-05T03:47:16.614Z,1.80
2018-05-05T03:49:42.832Z,1.90
2018-05-05T03:52:08.990Z,1.80
2018-05-05T03:54:35.392Z,1.80
2018-05-05T03:57:01.603Z,1.80
2018-05-05T03:59:40.149Z,1.80
2018-05-05T04:08:18.351Z,1.90
2018-05-05T04:10:44.627Z,1.90
2018-05-05T04:13:10.791Z,1.90
2018-05-05T04:15:37.111Z,1.90
2018-05-05T04:18:04.085Z,2.00
2018-05-05T04:20:30.440Z,1.90
2018-05-05T04:22:56.868Z,2.00
2018-05-05T04:25:23.224Z,2.10
2018-05-05T04:27:49.638Z,2.10
2018-05-05T04:30:15.902Z,2.20
2018-05-05T04:32:42.930Z,2.20
2018-05-05T04:35:09.182Z,2.20
2018-05-05T04:37:35.544Z,2.20
2018-05-05T04:40:01.750Z,2.20
2018-05-05T04:42:28.146Z,2.20
2018-05-05T04:44:55.196Z,2.40
2018-05-05T04:47:22.179Z,2.50
2018-05-05T04:49:48.400Z,2.50
2018-05-05T04:52:14.735Z,2.50
2018-05-05T04:54:41.036Z,2.50
2018-05-05T04:57:07.291Z,2.50
2018-05-05T04:59:33.528Z,2.70
2018-05-05T05:01:59.995Z,2.80
2018-05-05T05:04:26.193Z,2.80
2018-05-05T05:06:52.342Z,2.90
2018-05-05T05:09:18.598Z,3.00
2018-05-05T05:11:45.491Z,3.10
2018-05-05T05:14:11.792Z,3.10
2018-05-05T05:16:38.112Z,3.20
2018-05-05T05:19:04.473Z,3.20
2018-05-05T05:21:30.930Z,3.30
2018-05-05T05:23:57.141Z,3.40
2018-05-05T05:26:23.352Z,3.50
2018-05-05T05:28:49.715Z,3.60
2018-05-05T05:31:15.985Z,3.80
2018-05-05T05:33:42.190Z,4.00
2018-05-05T05:36:08.647Z,4.40
2018-05-05T05:38:35.133Z,4.70
2018-05-05T05:41:01.439Z,5.00
2018-05-05T05:43:27.691Z,5.30
2018-05-05T05:45:55.469Z,5.80
2018-05-05T05:48:21.797Z,5.80
2018-05-05T05:50:48.932Z,6.30
2018-05-05T05:53:15.389Z,6.30
2018-05-05T05:55:43.440Z,7.00
2018-05-05T05:58:09.863Z,7.00
2018-05-05T06:00:36.817Z,7.90
2018-05-05T06:03:03.807Z,8.30
2018-05-05T06:05:30.171Z,8.30
2018-05-05T06:07:56.612Z,9.10
2018-05-05T06:10:22.985Z,9.90
2018-05-05T06:12:49.933Z,11.10
2018-05-05T06:15:16.244Z,11.10
2018-05-05T06:17:43.242Z,12.20
2018-05-05T06:20:09.465Z,12.20
2018-05-05T06:22:35.695Z,12.90
2018-05-05T06:25:02.139Z,13.60
2018-05-05T06:27:28.320Z,14.10
2018-05-05T06:29:54.563Z,14.60
2018-05-05T06:32:20.725Z,15.10
2018-05-05T06:34:46.993Z,15.50
2018-05-05T06:37:14.046Z,16.10
2018-05-05T06:39:41.098Z,16.30
2018-05-05T06:42:07.299Z,16.30
2018-05-05T06:44:34.434Z,16.60
2018-05-05T06:47:00.708Z,16.60
2018-05-05T06:49:26.972Z,16.70
2018-05-05T06:51:53.225Z,16.70
2018-05-05T06:54:20.316Z,17.00
2018-05-05T06:56:46.675Z,17.00
2018-05-05T06:59:12.862Z,17.50
2018-05-05T07:01:39.133Z,17.80
2018-05-05T07:04:06.813Z,17.50
2018-05-05T07:06:35.385Z,17.20
2018-05-05T07:09:01.608Z,17.20
2018-05-05T07:11:28.046Z,17.10
2018-05-05T07:13:54.468Z,16.90
2018-05-05T07:16:20.623Z,16.50
2018-05-05T07:18:47.726Z,16.20
2018-05-05T07:21:13.975Z,16.20
2018-05-05T07:23:41.222Z,16.20
2018-05-05T07:26:07.507Z,16.20
2018-05-05T07:28:33.686Z,15.90
2018-05-05T07:31:00.093Z,15.80
2018-05-05T07:33:26.358Z,16.00
2018-05-05T07:35:53.945Z,15.80
2018-05-05T07:38:20.314Z,15.80
2018-05-05T07:40:47.065Z,15.80
2018-05-05T07:43:13.321Z,15.80
2018-05-05T07:45:39.610Z,15.70
2018-05-05T07:48:05.888Z,15.60
2018-05-05T07:50:32.209Z,15.60
2018-05-05T07:52:59.167Z,15.30
2018-05-05T07:55:25.472Z,15.30
2018-05-05T07:57:52.996Z,15.60
2018-05-05T08:00:19.301Z,15.60
2018-05-05T08:02:45.553Z,15.80
2018-05-05T08:05:11.749Z,15.60
2018-05-05T08:07:38.063Z,15.50
2018-05-05T08:10:04.303Z,15.50
2018-05-05T08:12:30.691Z,15.40
2018-05-05T08:14:56.954Z,15.50
2018-05-05T08:17:23.171Z,15.50
2018-05-05T08:19:50.099Z,15.70
2018-05-05T08:22:17.074Z,15.80
2018-05-05T08:24:43.747Z,15.80
2018-05-05T08:27:10.046Z,15.60
2018-05-05T08:29:36.917Z,15.60
2018-05-05T08:32:03.655Z,15.70
2018-05-05T08:34:29.988Z,16.00
2018-05-05T08:36:57.528Z,16.00
2018-05-05T08:39:24.716Z,16.10
2018-05-05T08:41:51.243Z,16.30
2018-05-05T08:44:17.597Z,16.40
2018-05-05T08:46:44.550Z,16.40
2018-05-05T08:49:12.083Z,16.40
2018-05-05T08:51:38.394Z,16.40
2018-05-05T08:54:04.788Z,16.40
2018-05-05T08:56:33.714Z,16.50
2018-05-05T08:59:00.463Z,16.60
2018-05-05T09:01:28.881Z,16.50
2018-05-05T09:03:56.283Z,16.50
2018-05-05T09:06:23.902Z,16.50
2018-05-05T09:08:50.510Z,16.70
2018-05-05T09:11:17.732Z,17.10
2018-05-05T09:13:46.704Z,17.10
2018-05-05T09:16:15.139Z,17.40
2018-05-05T09:18:43.383Z,17.60
2018-05-05T09:21:11.545Z,17.60
2018-05-05T09:23:37.755Z,17.70
2018-05-05T09:26:04.428Z,17.80
2018-05-05T09:28:31.706Z,17.80
2018-05-05T09:30:59.855Z,18.00
2018-05-05T09:33:27.679Z,18.00
2018-05-05T09:35:53.870Z,17.80
2018-05-05T09:38:22.847Z,18.00
2018-05-05T09:40:49.498Z,18.00
2018-05-05T09:43:19.557Z,18.10
2018-05-05T09:45:46.901Z,18.10
2018-05-05T09:48:13.325Z,18.20
2018-05-05T09:50:40.549Z,18.40
2018-05-05T09:53:07.734Z,18.10
2018-05-05T09:55:35.372Z,18.10
2018-05-05T09:58:01.797Z,18.20
2018-05-05T10:00:30.277Z,18.10
2018-05-05T10:02:56.781Z,18.10
2018-05-05T10:05:22.994Z,17.90
2018-05-05T10:07:49.446Z,17.90
2018-05-05T10:10:16.998Z,18.50
2018-05-05T10:12:45.353Z,18.50
2018-05-05T10:15:12.224Z,18.50
2018-05-05T10:17:38.657Z,18.40
2018-05-05T10:20:05.963Z,18.30
2018-05-05T10:22:34.391Z,18.30
2018-05-05T10:25:03.372Z,18.20
2018-05-05T10:27:31.376Z,18.10
2018-05-05T10:29:57.721Z,18.10
2018-05-05T10:32:27.021Z,18.00
2018-05-05T10:34:53.368Z,18.20
2018-05-05T10:37:20.741Z,18.20
2018-05-05T10:39:48.618Z,18.00
2018-05-05T10:42:17.589Z,17.90
2018-05-05T10:44:43.862Z,17.60
2018-05-05T10:47:10.210Z,17.60
2018-05-05T10:49:36.650Z,17.70
2018-05-05T10:52:05.355Z,17.50
2018-05-05T10:54:31.731Z,17.30
2018-05-05T10:56:58.979Z,17.70
2018-05-05T10:59:25.372Z,17.70
2018-05-05T11:01:51.851Z,18.10
2018-05-05T11:04:18.136Z,18.10
2018-05-05T11:06:44.318Z,18.20
2018-05-05T11:09:11.354Z,18.40
2018-05-05T11:11:38.374Z,18.20
2018-05-05T11:14:04.695Z,18.20
2018-05-05T11:16:31.071Z,18.10
2018-05-05T11:18:57.320Z,18.00
2018-05-05T11:21:23.697Z,18.00
2018-05-05T11:23:50.071Z,18.00
2018-05-05T11:26:16.384Z,18.10
2018-05-05T11:28:43.498Z,18.20
2018-05-05T11:31:09.937Z,18.20
2018-05-05T11:33:36.295Z,18.20
2018-05-05T11:36:03.412Z,18.40
2018-05-05T11:38:29.711Z,18.30
2018-05-05T11:40:56.003Z,18.60
2018-05-05T11:43:23.139Z,19.00
2018-05-05T11:45:49.313Z,19.00
2018-05-05T11:48:15.615Z,19.10
2018-05-05T11:50:41.936Z,18.80
2018-05-05T11:53:08.346Z,18.70
2018-05-05T11:55:34.529Z,18.80
2018-05-05T11:58:00.788Z,18.80
2018-05-05T12:00:27.197Z,18.80
2018-05-05T12:02:53.843Z,18.90
2018-05-05T12:05:20.066Z,18.90
2018-05-05T12:07:46.418Z,18.70
2018-05-05T12:10:12.711Z,18.70
2018-05-05T12:12:38.874Z,18.70
2018-05-05T12:15:05.305Z,18.60
2018-05-05T12:17:31.675Z,18.30
2018-05-05T12:19:58.019Z,18.40
2018-05-05T12:22:24.303Z,18.60
2018-05-05T12:24:50.676Z,18.50
2018-05-05T12:27:17.691Z,18.70
2018-05-05T12:29:44.289Z,18.70
2018-05-05T12:32:10.678Z,18.70
2018-05-05T12:34:37.618Z,18.60
2018-05-05T12:37:04.628Z,18.60
2018-05-05T12:39:30.916Z,18.60
2018-05-05T12:41:57.159Z,18.80
2018-05-05T12:44:23.386Z,18.80
2018-05-05T12:46:49.675Z,18.80
2018-05-05T12:49:16.675Z,18.50
2018-05-05T12:51:43.143Z,18.50
2018-05-05T12:54:09.501Z,18.60
2018-05-05T12:56:36.807Z,18.50
2018-05-05T12:59:03.199Z,18.70
2018-05-05T13:01:29.570Z,18.80
2018-05-05T13:03:55.860Z,18.80
2018-05-05T13:06:22.366Z,18.70
2018-05-05T13:08:49.500Z,18.80
2018-05-05T13:11:15.861Z,18.80
2018-05-05T13:13:43.386Z,18.90
2018-05-05T13:16:09.696Z,18.80
2018-05-05T13:18:36.167Z,18.90
2018-05-05T13:21:03.457Z,18.90
2018-05-05T13:23:30.024Z,18.90
2018-05-05T13:25:56.393Z,18.70
2018-05-05T13:28:23.877Z,18.60
2018-05-05T13:30:50.142Z,18.60
2018-05-05T13:33:16.445Z,18.50
2018-05-05T13:35:42.806Z,18.60
2018-05-05T13:38:08.990Z,18.40
2018-05-05T13:40:35.361Z,18.30
2018-05-05T13:43:01.566Z,18.40
2018-05-05T13:45:27.783Z,18.50
2018-05-05T13:47:54.135Z,18.50
2018-05-05T13:50:20.354Z,18.60
2018-05-05T13:52:46.851Z,18.50
2018-05-05T13:55:13.132Z,18.50
2018-05-05T13:57:39.569Z,18.40
2018-05-05T14:00:05.809Z,18.60
2018-05-05T14:02:32.223Z,18.80
2018-05-05T14:04:58.496Z,18.90
2018-05-05T14:07:25.441Z,18.60
2018-05-05T14:09:52.090Z,18.60
2018-05-05T14:12:18.426Z,18.60
2018-05-05T14:14:44.912Z,18.70
2018-05-05T14:17:11.250Z,18.80
2018-05-05T14:19:37.471Z,18.70
2018-05-05T14:22:03.633Z,18.80
2018-05-05T14:24:29.903Z,18.90
2018-05-05T14:26:56.105Z,18.90
2018-05-05T14:29:22.448Z,19.00
2018-05-05T14:31:49.395Z,19.00
2018-05-05T14:34:15.681Z,19.10
2018-05-05T14:36:43.069Z,19.20
2018-05-05T14:39:09.387Z,19.10
2018-05-05T14:41:35.828Z,19.20
2018-05-05T14:44:02.008Z,19.20
2018-05-05T14:46:28.213Z,19.10
2018-05-05T14:48:54.545Z,19.20
2018-05-05T14:51:22.592Z,19.10
2018-05-05T14:53:48.876Z,19.10
2018-05-05T14:56:16.017Z,19.20
2018-05-05T14:58:43.519Z,19.30
2018-05-05T15:01:09.822Z,19.30
2018-05-05T15:03:36.225Z,19.20
2018-05-05T15:06:02.548Z,19.20
2018-05-05T15:08:28.843Z,19.30
2018-05-05T15:10:55.350Z,19.30
2018-05-05T15:13:21.684Z,19.20
2018-05-05T15:15:47.953Z,19.00
2018-05-05T15:18:14.251Z,19.00
2018-05-05T15:20:40.540Z,18.90
2018-05-05T15:23:06.812Z,18.80
2018-05-05T15:25:33.296Z,18.90
2018-05-05T15:27:59.693Z,18.80
2018-05-05T15:30:26.624Z,18.90
2018-05-05T15:32:53.607Z,18.90
2018-05-05T15:35:19.996Z,18.70
2018-05-05T15:37:46.257Z,18.60
2018-05-05T15:40:12.695Z,18.50
2018-05-05T15:42:38.943Z,18.40
2018-05-05T15:45:05.255Z,18.40
2018-05-05T15:47:31.675Z,18.50
2018-05-05T15:49:58.001Z,18.50
2018-05-05T15:52:24.194Z,18.50
2018-05-05T15:54:50.486Z,18.50
2018-05-05T15:57:16.722Z,18.40
2018-05-05T15:59:43.142Z,18.30
2018-05-05T16:02:09.535Z,18.20
2018-05-05T16:04:36.267Z,18.20
2018-05-05T16:07:02.620Z,18.10
2018-05-05T16:09:28.840Z,18.20
2018-05-05T16:11:55.168Z,18.10
2018-05-05T16:14:21.621Z,18.10
2018-05-05T16:16:48.208Z,18.10
2018-05-05T16:19:14.536Z,18.00
2018-05-05T16:21:40.878Z,18.00
2018-05-05T16:24:07.033Z,18.00
2018-05-05T16:26:33.931Z,17.90
2018-05-05T16:29:00.914Z,17.80
2018-05-05T16:31:27.256Z,17.70
2018-05-05T16:33:53.484Z,17.70
2018-05-05T16:36:19.817Z,17.60
2018-05-05T16:38:46.007Z,17.50
2018-05-05T16:41:12.318Z,17.50
2018-05-05T16:43:39.483Z,17.40
2018-05-05T16:46:05.752Z,17.40
2018-05-05T16:48:32.075Z,17.40
2018-05-05T16:50:58.270Z,17.50
2018-05-05T16:53:24.489Z,17.40
2018-05-05T16:55:50.863Z,17.30
2018-05-05T16:58:17.136Z,17.30
2018-05-05T17:00:44.111Z,17.20
2018-05-05T17:03:10.386Z,17.10
2018-05-05T17:05:36.519Z,17.10
2018-05-05T17:08:03.636Z,16.90
2018-05-05T17:10:29.834Z,16.90
2018-05-05T17:12:56.307Z,16.90
2018-05-05T17:15:22.543Z,16.90
2018-05-05T17:17:48.695Z,16.80
2018-05-05T17:20:15.668Z,16.70
2018-05-05T17:22:42.093Z,16.70
2018-05-05T17:25:08.437Z,16.70
2018-05-05T17:27:34.589Z,16.60
2018-05-05T17:30:01.157Z,16.50
2018-05-05T17:32:28.268Z,16.30
2018-05-05T17:34:54.711Z,16.30
2018-05-05T17:37:21.027Z,16.30
2018-05-05T17:39:47.363Z,16.30
2018-05-05T17:42:13.642Z,16.20
2018-05-05T17:44:40.760Z,16.00
2018-05-05T17:47:08.007Z,16.00
2018-05-05T17:49:34.296Z,16.00
2018-05-05T17:52:00.655Z,15.90
2018-05-05T17:54:26.873Z,15.80
2018-05-05T17:56:53.251Z,15.70
2018-05-05T17:59:19.533Z,15.70
2018-05-05T18:01:45.786Z,15.60
2018-05-05T18:04:12.124Z,15.50
2018-05-05T18:06:38.481Z,15.50
2018-05-05T18:09:05.245Z,15.40
2018-05-05T18:11:31.562Z,15.40
2018-05-05T18:13:57.970Z,15.30
2018-05-05T18:16:24.901Z,15.20
2018-05-05T18:18:52.017Z,15.00
2018-05-05T18:21:18.565Z,15.00
2018-05-05T18:23:44.895Z,14.90
2018-05-05T18:26:11.561Z,14.90
2018-05-05T18:28:38.670Z,14.60
2018-05-05T18:31:05.019Z,14.60
2018-05-05T18:33:31.226Z,14.60
2018-05-05T18:35:57.500Z,14.50
2018-05-05T18:38:23.820Z,14.40
2018-05-05T18:40:50.988Z,14.30
2018-05-05T18:43:18.248Z,14.30
2018-05-05T18:45:44.555Z,14.20
2018-05-05T18:48:11.541Z,14.10
2018-05-05T18:50:37.773Z,14.10
2018-05-05T18:53:04.165Z,13.90
2018-05-05T18:55:30.411Z,13.80
2018-05-05T18:57:56.609Z,13.70
2018-05-05T19:00:23.749Z,13.40
2018-05-05T19:02:50.163Z,13.40
2018-05-05T19:05:16.506Z,13.30
2018-05-05T19:07:42.736Z,13.10
2018-05-05T19:10:09.039Z,13.00
2018-05-05T19:12:35.672Z,12.80
2018-05-05T19:15:02.058Z,12.80
2018-05-05T19:17:28.336Z,12.60
2018-05-05T19:19:54.640Z,12.50
2018-05-05T19:22:21.021Z,12.30
2018-05-05T19:24:48.576Z,12.00
2018-05-05T19:27:14.825Z,12.00
2018-05-05T19:29:41.753Z,11.80
2018-05-05T19:32:08.156Z,11.80
2018-05-05T19:34:34.420Z,11.70
2018-05-05T19:37:01.395Z,11.50
2018-05-05T19:39:27.786Z,11.50
2018-05-05T19:41:55.399Z,11.20
2018-05-05T19:44:21.659Z,11.20
2018-05-05T19:46:48.632Z,11.10
2018-05-05T19:49:14.913Z,10.90
2018-05-05T19:51:41.388Z,10.80
2018-05-05T19:54:08.504Z,10.60
2018-05-05T19:56:36.332Z,10.40
2018-05-05T19:59:02.714Z,10.40
2018-05-05T20:01:28.961Z,10.30
2018-05-05T20:03:56.191Z,10.00
2018-05-05T20:06:22.469Z,10.00
2018-05-05T20:08:48.731Z,9.80
2018-05-05T20:11:15.436Z,9.70
2018-05-05T20:13:41.738Z,9.50
2018-05-05T20:16:08.153Z,9.40
2018-05-05T20:18:34.508Z,9.30
2018-05-05T20:21:03.191Z,9.10
2018-05-05T20:23:30.180Z,9.00
2018-05-05T20:25:56.461Z,9.00
2018-05-05T20:28:23.885Z,8.80
2018-05-05T20:30:51.024Z,8.70
2018-05-05T20:33:17.290Z,8.60
2018-05-05T20:35:44.241Z,8.50
2018-05-05T20:38:11.307Z,8.40
2018-05-05T20:40:37.711Z,8.40
2018-05-05T20:43:04.756Z,8.20
2018-05-05T20:45:31.683Z,8.10
2018-05-05T20:47:58.077Z,8.10
2018-05-05T20:50:24.477Z,8.10
2018-05-05T20:52:50.771Z,8.00
2018-05-05T20:55:17.411Z,7.90
2018-05-05T20:57:44.372Z,7.70
2018-05-05T21:00:11.459Z,7.70
2018-05-05T21:02:37.893Z,7.70
2018-05-05T21:05:04.211Z,7.60
2018-05-05T21:07:30.483Z,7.50
2018-05-05T21:09:56.933Z,7.50
2018-05-05T21:12:24.027Z,7.40
2018-05-05T21:14:50.343Z,7.40
2018-05-05T21:17:16.575Z,7.20
2018-05-05T21:19:43.166Z,7.10
2018-05-05T21:22:10.193Z,7.00
2018-05-05T21:24:36.637Z,7.00
2018-05-05T21:27:03.929Z,7.00
2018-05-05T21:29:30.259Z,6.90
2018-05-05T21:31:56.796Z,6.80
2018-05-05T21:34:23.182Z,6.80
2018-05-05T21:36:51.582Z,6.70
2018-05-05T21:39:18.941Z,6.60
2018-05-05T21:41:45.168Z,6.60
2018-05-05T21:44:12.277Z,6.50
2018-05-05T21:46:38.598Z,6.40
2018-05-05T21:49:05.149Z,6.40
2018-05-05T21:51:31.372Z,6.30
2018-05-05T21:53:57.598Z,6.20
2018-05-05T21:56:23.940Z,6.20
2018-05-05T21:58:50.350Z,6.10
2018-05-05T22:01:16.797Z,6.10
2018-05-05T22:03:42.970Z,6.00
2018-05-05T22:06:10.068Z,6.00
2018-05-05T22:08:36.176Z,5.90
2018-05-05T22:11:02.536Z,5.90
2018-05-05T22:13:29.176Z,5.90
2018-05-05T22:15:55.909Z,5.90
2018-05-05T22:18:22.950Z,5.80
2018-05-05T22:20:49.329Z,5.70
2018-05-05T22:23:15.545Z,5.70
2018-05-05T22:25:42.701Z,5.60
2018-05-05T22:28:08.983Z,5.60
2018-05-05T22:30:35.305Z,5.60
2018-05-05T22:33:01.598Z,5.50
2018-05-05T22:35:27.868Z,5.40
2018-05-05T22:37:54.375Z,5.40
2018-05-05T22:40:20.709Z,5.40
2018-05-05T22:42:46.936Z,5.30
2018-05-05T22:45:14.529Z,5.30
2018-05-05T22:47:40.727Z,5.30
2018-05-05T22:50:07.007Z,5.30
2018-05-05T22:52:34.218Z,5.20
2018-05-05T22:55:00.558Z,5.20
2018-05-05T22:57:26.982Z,5.20
2018-05-05T22:59:53.448Z,5.10
2018-05-05T23:02:20.393Z,5.10
2018-05-05T23:04:47.820Z,5.00
2018-05-05T23:07:14.153Z,5.00
2018-05-05T23:09:41.226Z,4.90
2018-05-05T23:12:08.437Z,4.80
2018-05-05T23:14:34.880Z,4.80
2018-05-05T23:17:01.858Z,4.70
2018-05-05T23:19:28.835Z,4.70
2018-05-05T23:21:55.198Z,4.70
2018-05-05T23:24:21.487Z,4.70
2018-05-05T23:26:47.974Z,4.60
2018-05-05T23:29:14.248Z,4.60
2018-05-05T23:31:40.660Z,4.50
2018-05-05T23:34:06.846Z,4.50
2018-05-05T23:36:34.772Z,4.40
2018-05-05T23:39:01.256Z,4.40
2018-05-05T23:41:27.493Z,4.30
2018-05-05T23:43:54.428Z,4.30
2018-05-05T23:46:20.847Z,4.30
2018-05-05T23:48:47.107Z,4.30
2018-05-05T23:51:14.221Z,4.20
2018-05-05T23:53:40.501Z,4.20
2018-05-05T23:56:07.035Z,4.20
2018-05-05T23:58:33.415Z,4.20
